Time;durP1;ratioP1;P1;durP2;ratioP2;P2;SDS_P1;SDS_P2;PMS_P1;PMS_P2;Temp;Humidity;BMP_temperature;BMP_pressure;BME280_temperature;BME280_humidity;BME280_pressure;Samples;Min_cycle;Max_cycle;Signal;HPM_P1;HPM_P2
2023/10/21 00:00:19;;;;;;;27.48;10.95;;;11.60;99.90;;;;;;5048882;28;20053;-70
2023/10/21 00:02:44;;;;;;;28.90;11.45;;;11.60;99.90;;;;;;5049825;28;20116;-70
2023/10/21 00:05:10;;;;;;;29.35;11.95;;;11.60;99.90;;;;;;5038649;28;20046;-70
2023/10/21 00:07:36;;;;;;;26.70;11.00;;;11.50;99.90;;;;;;5050571;28;20053;-70
2023/10/21 00:10:01;;;;;;;26.75;10.93;;;11.60;99.90;;;;;;5051445;28;20069;-69
2023/10/21 00:12:27;;;;;;;22.92;11.32;;;11.50;99.90;;;;;;5050998;28;20041;-68
2023/10/21 00:14:52;;;;;;;20.02;10.50;;;11.50;99.90;;;;;;5044191;28;20044;-70
2023/10/21 00:17:18;;;;;;;21.42;10.05;;;11.40;99.90;;;;;;5049242;28;20053;-70
2023/10/21 00:19:44;;;;;;;23.08;10.52;;;11.40;99.90;;;;;;5048477;28;20052;-70
2023/10/21 00:22:10;;;;;;;19.52;9.93;;;11.30;99.90;;;;;;5024418;28;20123;-70
2023/10/21 00:24:35;;;;;;;21.23;10.73;;;11.40;99.90;;;;;;5032957;28;20044;-70
2023/10/21 00:27:01;;;;;;;23.80;10.70;;;11.50;99.90;;;;;;5032151;28;20126;-69
2023/10/21 00:29:27;;;;;;;24.30;10.18;;;11.50;99.90;;;;;;5028888;28;20067;-70
2023/10/21 00:31:53;;;;;;;21.58;10.98;;;11.50;99.90;;;;;;5030311;28;20119;-68
2023/10/21 00:34:18;;;;;;;25.85;10.95;;;11.50;99.90;;;;;;5052520;28;20151;-70
2023/10/21 00:36:44;;;;;;;19.60;10.52;;;11.40;99.90;;;;;;5050136;28;20041;-70
2023/10/21 00:39:12;;;;;;;23.38;11.27;;;11.40;99.90;;;;;;5034926;28;20045;-70
2023/10/21 00:41:38;;;;;;;27.27;10.98;;;11.30;99.90;;;;;;5053205;28;20040;-69
2023/10/21 00:44:05;;;;;;;21.25;10.80;;;11.20;99.90;;;;;;5053953;28;20102;-70
2023/10/21 00:46:31;;;;;;;22.55;11.20;;;11.30;99.90;;;;;;5044872;28;20025;-70
2023/10/21 00:48:57;;;;;;;19.88;10.00;;;11.20;99.90;;;;;;5043881;28;20051;-70
2023/10/21 00:51:25;;;;;;;22.80;11.02;;;11.20;99.90;;;;;;5035099;28;20045;-69
2023/10/21 00:53:51;;;;;;;22.75;10.00;;;11.20;99.90;;;;;;5047261;28;20037;-69
2023/10/21 00:56:17;;;;;;;21.60;10.20;;;11.10;99.90;;;;;;5046402;28;20037;-69
2023/10/21 00:58:42;;;;;;;20.60;9.63;;;11.00;99.90;;;;;;5052472;28;20047;-69
2023/10/21 01:01:10;;;;;;;19.23;9.82;;;10.90;99.90;;;;;;5048800;28;20041;-69
2023/10/21 01:03:37;;;;;;;19.00;8.95;;;10.80;99.90;;;;;;5046943;28;20563;-69
2023/10/21 01:06:03;;;;;;;19.85;9.15;;;10.80;99.90;;;;;;5046707;28;20040;-69
2023/10/21 01:08:29;;;;;;;20.95;9.02;;;10.70;99.90;;;;;;5039108;28;20090;-70
2023/10/21 01:10:55;;;;;;;17.10;9.02;;;10.70;99.90;;;;;;5046894;28;20049;-70
2023/10/21 01:13:21;;;;;;;17.08;8.45;;;10.70;99.90;;;;;;5044227;28;20064;-69
2023/10/21 01:15:46;;;;;;;14.23;7.90;;;10.70;99.90;;;;;;5052896;28;20080;-70
2023/10/21 01:18:13;;;;;;;19.63;8.80;;;10.70;99.90;;;;;;5050226;28;20064;-70
2023/10/21 01:20:42;;;;;;;16.73;8.77;;;10.90;99.90;;;;;;5049924;28;20151;-68
2023/10/21 01:23:08;;;;;;;15.57;8.57;;;10.90;99.90;;;;;;5036641;28;20088;-69
2023/10/21 01:25:34;;;;;;;17.15;8.80;;;10.90;99.90;;;;;;5034722;28;20037;-69
2023/10/21 01:28:00;;;;;;;14.38;7.78;;;10.90;99.90;;;;;;5045041;28;20414;-69
2023/10/21 01:30:26;;;;;;;18.95;8.48;;;10.90;99.90;;;;;;5039884;28;20489;-69
2023/10/21 01:32:52;;;;;;;16.88;8.45;;;11.00;99.90;;;;;;5042355;28;20053;-69
2023/10/21 01:35:18;;;;;;;18.42;8.70;;;11.10;99.90;;;;;;5052306;28;20044;-68
2023/10/21 01:37:45;;;;;;;17.63;8.07;;;11.10;99.90;;;;;;5017662;28;20041;-69
2023/10/21 01:40:12;;;;;;;21.30;8.07;;;11.10;99.90;;;;;;5044157;28;20078;-69
2023/10/21 01:42:38;;;;;;;20.95;8.65;;;11.10;99.90;;;;;;5051749;28;20162;-68
2023/10/21 01:45:04;;;;;;;17.55;8.75;;;11.00;99.90;;;;;;5034233;28;20477;-70
2023/10/21 01:47:30;;;;;;;20.52;8.60;;;11.10;99.90;;;;;;5030410;28;20082;-70
2023/10/21 01:49:57;;;;;;;20.83;8.30;;;11.00;99.90;;;;;;5056779;28;20041;-70
2023/10/21 01:52:23;;;;;;;20.23;9.20;;;10.90;99.90;;;;;;5051439;28;20088;-70
2023/10/21 01:54:50;;;;;;;18.50;8.98;;;10.90;99.90;;;;;;5037504;28;20045;-70
2023/10/21 01:57:16;;;;;;;18.30;7.95;;;10.90;99.90;;;;;;5043367;28;20036;-70
2023/10/21 01:59:41;;;;;;;17.50;7.97;;;10.80;99.90;;;;;;5039471;28;20049;-70
2023/10/21 02:02:07;;;;;;;16.52;7.78;;;10.80;99.90;;;;;;5048078;28;20045;-70
2023/10/21 02:04:33;;;;;;;19.17;7.88;;;10.80;99.90;;;;;;5047576;28;20037;-70
2023/10/21 02:06:59;;;;;;;18.98;8.23;;;10.70;99.90;;;;;;5036671;28;20129;-70
2023/10/21 02:09:24;;;;;;;21.48;8.55;;;10.70;99.90;;;;;;5051939;28;20041;-70
2023/10/21 02:11:54;;;;;;;19.45;8.80;;;10.80;99.90;;;;;;5021056;28;20462;-70
2023/10/21 02:14:22;;;;;;;14.73;8.88;;;10.80;99.90;;;;;;5035295;28;20052;-70
2023/10/21 02:16:52;;;;;;;18.23;9.15;;;10.80;99.90;;;;;;5051050;28;20088;-69
2023/10/21 02:19:17;;;;;;;19.92;8.45;;;10.80;99.90;;;;;;5044548;28;20042;-69
2023/10/21 02:21:43;;;;;;;20.05;9.15;;;10.80;99.90;;;;;;5027323;28;20041;-69
2023/10/21 02:24:09;;;;;;;21.65;9.02;;;10.80;99.90;;;;;;5034775;28;20512;-69
2023/10/21 02:26:34;;;;;;;20.98;9.52;;;10.80;99.90;;;;;;5033653;28;20041;-69
2023/10/21 02:29:00;;;;;;;19.67;10.48;;;10.80;99.90;;;;;;5044779;28;20051;-70
2023/10/21 02:31:25;;;;;;;21.58;9.43;;;10.90;99.90;;;;;;5050597;28;20512;-70
2023/10/21 02:33:52;;;;;;;19.77;9.60;;;10.90;99.90;;;;;;5050865;28;20037;-70
2023/10/21 02:36:18;;;;;;;19.98;9.68;;;10.80;99.90;;;;;;5045338;28;20459;-70
2023/10/21 02:38:43;;;;;;;22.95;10.38;;;10.90;99.90;;;;;;5050394;28;20148;-70
2023/10/21 02:41:09;;;;;;;23.05;10.30;;;10.90;99.90;;;;;;5050879;28;20037;-70
2023/10/21 02:43:34;;;;;;;21.90;10.40;;;10.90;99.90;;;;;;5049221;28;20095;-70
2023/10/21 02:46:10;;;;;;;21.02;10.52;;;10.80;99.90;;;;;;5036925;28;20091;-70
2023/10/21 02:48:36;;;;;;;24.02;10.70;;;10.80;99.90;;;;;;5035178;28;20037;-71
2023/10/21 02:51:28;;;;;;;19.60;10.55;;;10.90;99.90;;;;;;5051539;28;20037;-71
2023/10/21 02:53:54;;;;;;;22.88;11.05;;;10.90;99.90;;;;;;5043213;28;20053;-71
2023/10/21 02:56:19;;;;;;;25.90;11.43;;;10.90;99.90;;;;;;5040766;28;20044;-71
2023/10/21 02:58:45;;;;;;;23.92;11.65;;;11.00;99.90;;;;;;5051653;28;20083;-71
2023/10/21 03:01:17;;;;;;;22.75;11.93;;;11.00;99.90;;;;;;5042570;28;20042;-70
2023/10/21 03:03:44;;;;;;;24.30;11.93;;;11.00;99.90;;;;;;5032198;28;20191;-70
2023/10/21 03:06:10;;;;;;;24.98;11.55;;;11.00;99.90;;;;;;5041071;28;20033;-71
2023/10/21 03:08:38;;;;;;;25.27;11.98;;;11.00;99.90;;;;;;5045516;28;20052;-71
2023/10/21 03:11:05;;;;;;;28.20;11.45;;;11.00;99.90;;;;;;5031982;28;20155;-70
2023/10/21 03:13:32;;;;;;;24.85;12.00;;;11.00;99.90;;;;;;5047281;28;20052;-70
2023/10/21 03:15:57;;;;;;;27.40;11.82;;;11.00;99.90;;;;;;5032905;28;20055;-71
2023/10/21 03:18:23;;;;;;;20.80;11.48;;;11.00;99.90;;;;;;5039848;28;20029;-71
2023/10/21 03:20:52;;;;;;;32.42;13.05;;;11.00;99.90;;;;;;5045243;28;20037;-69
2023/10/21 03:23:18;;;;;;;25.20;12.07;;;11.10;99.90;;;;;;5015796;28;20444;-69
2023/10/21 03:26:13;;;;;;;24.42;11.98;;;11.10;99.90;;;;;;5042139;28;20041;-70
2023/10/21 03:28:39;;;;;;;27.95;11.82;;;11.20;99.90;;;;;;5016386;28;20049;-70
2023/10/21 03:31:05;;;;;;;25.38;12.02;;;11.20;99.90;;;;;;5050754;28;20440;-71
2023/10/21 03:33:31;;;;;;;22.55;11.90;;;11.20;99.90;;;;;;5049207;28;20116;-71
2023/10/21 03:35:59;;;;;;;24.77;11.93;;;11.30;99.90;;;;;;5037731;28;20045;-71
2023/10/21 03:38:25;;;;;;;27.45;12.48;;;11.30;99.90;;;;;;5032307;28;20037;-71
2023/10/21 03:40:55;;;;;;;25.92;11.90;;;11.20;99.90;;;;;;5044117;28;20045;-71
2023/10/21 03:43:20;;;;;;;22.20;11.00;;;11.30;99.90;;;;;;5042129;28;20037;-69
2023/10/21 03:45:46;;;;;;;26.08;11.70;;;11.20;99.90;;;;;;5039607;28;20099;-70
2023/10/21 03:48:11;;;;;;;20.50;11.07;;;11.10;99.90;;;;;;5042859;28;20039;-71
2023/10/21 03:50:37;;;;;;;23.90;10.68;;;11.10;99.90;;;;;;5046409;28;20041;-71
2023/10/21 03:53:03;;;;;;;23.42;11.13;;;11.10;99.90;;;;;;5034753;28;20051;-71
2023/10/21 03:55:28;;;;;;;18.88;10.15;;;11.00;99.90;;;;;;5047276;28;20459;-71
2023/10/21 03:57:54;;;;;;;19.60;10.05;;;11.00;99.90;;;;;;5035586;28;20046;-70
2023/10/21 04:00:21;;;;;;;25.40;11.52;;;11.00;99.90;;;;;;5042208;28;20095;-71
2023/10/21 04:02:47;;;;;;;20.88;10.75;;;11.00;99.90;;;;;;5044685;28;20041;-71
2023/10/21 04:05:12;;;;;;;20.80;10.27;;;10.90;99.90;;;;;;5033416;28;20524;-71
2023/10/21 04:07:38;;;;;;;22.55;10.85;;;10.90;99.90;;;;;;5027607;28;20038;-71
2023/10/21 04:10:04;;;;;;;21.17;10.70;;;10.80;99.90;;;;;;5046682;28;20052;-71
2023/10/21 04:12:30;;;;;;;23.98;10.75;;;10.90;99.90;;;;;;5039620;28;20040;-71
2023/10/21 04:14:56;;;;;;;21.85;9.82;;;10.90;99.90;;;;;;5029937;28;20179;-69
2023/10/21 04:17:21;;;;;;;21.45;10.40;;;10.80;99.90;;;;;;5038458;28;20059;-69
2023/10/21 04:19:47;;;;;;;22.33;10.63;;;10.80;99.90;;;;;;5038889;28;20493;-69
2023/10/21 04:22:12;;;;;;;24.95;11.65;;;10.80;99.90;;;;;;5035735;28;20045;-70
2023/10/21 04:24:38;;;;;;;22.38;11.65;;;10.80;99.90;;;;;;5048575;28;20048;-71
2023/10/21 04:27:04;;;;;;;24.48;12.07;;;10.90;99.90;;;;;;5050226;28;20482;-71
2023/10/21 04:29:32;;;;;;;23.60;11.32;;;10.90;99.90;;;;;;5044159;28;20127;-71
2023/10/21 04:31:58;;;;;;;19.80;11.30;;;10.90;99.90;;;;;;5048925;28;20160;-70
2023/10/21 04:34:24;;;;;;;21.92;11.57;;;10.90;99.90;;;;;;5034395;28;20708;-71
2023/10/21 04:36:49;;;;;;;22.05;11.43;;;10.90;99.90;;;;;;5051126;28;20044;-70
2023/10/21 04:39:16;;;;;;;21.33;11.55;;;10.90;99.90;;;;;;5032407;28;20488;-70
2023/10/21 04:41:42;;;;;;;24.15;11.48;;;10.90;99.90;;;;;;5026254;28;20041;-70
2023/10/21 04:44:09;;;;;;;26.48;11.25;;;10.90;99.90;;;;;;5050223;28;20456;-71
2023/10/21 04:46:35;;;;;;;23.73;10.65;;;11.00;99.90;;;;;;5050502;28;20122;-69
2023/10/21 04:49:00;;;;;;;25.95;10.80;;;11.00;99.90;;;;;;5037447;28;20115;-71
2023/10/21 04:51:26;;;;;;;23.80;11.35;;;11.00;99.90;;;;;;5036835;28;20044;-69
2023/10/21 04:53:51;;;;;;;22.02;11.07;;;11.00;99.90;;;;;;5050065;28;20045;-70
2023/10/21 04:56:17;;;;;;;23.75;11.60;;;11.00;99.90;;;;;;5050350;28;20037;-70
2023/10/21 04:58:42;;;;;;;28.02;11.48;;;11.00;99.90;;;;;;5041301;28;20035;-70
2023/10/21 05:01:10;;;;;;;20.85;10.65;;;11.00;99.90;;;;;;5019861;28;20127;-71
2023/10/21 05:03:36;;;;;;;25.35;10.85;;;11.00;99.90;;;;;;5022865;28;20051;-69
2023/10/21 05:06:04;;;;;;;20.25;10.65;;;11.00;99.90;;;;;;5037788;28;20043;-69
2023/10/21 05:08:31;;;;;;;19.80;10.35;;;11.00;99.90;;;;;;5042368;28;20037;-71
2023/10/21 05:10:56;;;;;;;24.50;11.27;;;11.00;99.90;;;;;;5023105;28;20053;-71
2023/10/21 05:13:23;;;;;;;26.00;10.55;;;11.00;99.90;;;;;;5050095;28;20047;-74
2023/10/21 05:15:50;;;;;;;20.85;10.95;;;11.10;99.90;;;;;;5024490;28;20045;-73
2023/10/21 05:18:16;;;;;;;22.85;10.63;;;11.10;99.90;;;;;;5019958;28;20057;-70
2023/10/21 05:20:42;;;;;;;22.98;11.15;;;11.10;99.90;;;;;;5042860;28;20053;-70
2023/10/21 05:23:08;;;;;;;21.08;11.18;;;11.20;99.90;;;;;;5038139;28;20056;-71
2023/10/21 05:25:33;;;;;;;21.70;10.70;;;11.20;99.90;;;;;;5046351;28;20126;-71
2023/10/21 05:27:59;;;;;;;20.10;10.25;;;11.20;99.90;;;;;;5049704;28;20131;-71
2023/10/21 05:30:25;;;;;;;20.75;10.18;;;11.20;99.90;;;;;;5048637;28;20048;-72
2023/10/21 05:32:51;;;;;;;21.55;10.63;;;11.20;99.90;;;;;;5026212;28;20430;-71
2023/10/21 05:35:16;;;;;;;19.15;9.88;;;11.30;99.90;;;;;;5048432;28;20041;-70
2023/10/21 05:37:42;;;;;;;20.85;9.90;;;11.30;99.90;;;;;;5039181;28;20033;-71
2023/10/21 05:40:08;;;;;;;24.58;10.45;;;11.30;99.90;;;;;;5042469;28;20045;-71
2023/10/21 05:42:33;;;;;;;20.83;10.50;;;11.30;99.90;;;;;;5023407;28;20044;-70
2023/10/21 05:44:59;;;;;;;19.52;10.60;;;11.40;99.90;;;;;;5048689;28;20044;-71
2023/10/21 05:47:26;;;;;;;20.17;9.52;;;11.40;99.90;;;;;;5037620;28;20037;-70
2023/10/21 05:49:53;;;;;;;19.08;9.50;;;11.50;99.90;;;;;;5047245;28;20497;-69
2023/10/21 05:52:18;;;;;;;21.98;9.90;;;11.50;99.90;;;;;;5047853;28;20033;-69
2023/10/21 05:54:44;;;;;;;16.50;9.48;;;11.60;99.90;;;;;;5039743;28;20055;-69
2023/10/21 05:57:09;;;;;;;19.90;9.68;;;11.60;99.90;;;;;;5030864;28;20115;-70
2023/10/21 05:59:35;;;;;;;21.70;10.23;;;11.60;99.90;;;;;;5036874;28;20051;-71
2023/10/21 06:02:04;;;;;;;19.75;10.35;;;11.70;99.90;;;;;;5050112;28;20502;-70
2023/10/21 06:04:31;;;;;;;20.27;10.45;;;11.70;99.90;;;;;;5035721;28;20120;-72
2023/10/21 06:06:57;;;;;;;23.05;10.40;;;11.80;99.90;;;;;;5037382;28;20047;-69
2023/10/21 06:09:26;;;;;;;22.27;10.30;;;11.90;99.90;;;;;;5033337;28;20398;-71
2023/10/21 06:11:52;;;;;;;17.13;9.23;;;11.90;99.90;;;;;;5034927;28;20054;-71
2023/10/21 06:14:17;;;;;;;18.02;10.02;;;11.90;99.90;;;;;;5030827;28;20480;-71
2023/10/21 06:16:44;;;;;;;22.58;10.60;;;11.90;99.90;;;;;;5049625;28;20127;-72
2023/10/21 06:19:10;;;;;;;18.70;10.18;;;11.90;99.90;;;;;;5056149;28;20043;-73
2023/10/21 06:21:36;;;;;;;19.35;10.25;;;12.00;99.90;;;;;;5056809;28;20032;-71
2023/10/21 06:24:06;;;;;;;20.15;10.48;;;12.00;99.90;;;;;;5052484;28;20024;-70
2023/10/21 06:26:31;;;;;;;18.05;10.65;;;12.10;99.90;;;;;;5038593;28;20044;-71
2023/10/21 06:28:58;;;;;;;21.58;10.45;;;12.00;99.90;;;;;;5045840;28;20504;-70
2023/10/21 06:31:24;;;;;;;20.80;10.48;;;12.10;99.90;;;;;;5027538;28;20438;-70
2023/10/21 06:33:50;;;;;;;24.33;10.70;;;12.20;99.90;;;;;;5037356;28;20110;-71
2023/10/21 06:36:16;;;;;;;22.48;10.50;;;12.10;99.90;;;;;;5058413;28;20033;-71
2023/10/21 06:38:42;;;;;;;20.38;10.48;;;12.20;99.90;;;;;;5032143;28;20044;-73
2023/10/21 06:41:07;;;;;;;21.27;10.23;;;12.20;99.90;;;;;;5047291;28;20515;-73
2023/10/21 06:43:33;;;;;;;19.85;10.43;;;12.20;99.90;;;;;;5054641;28;20110;-72
2023/10/21 06:45:59;;;;;;;19.45;9.77;;;12.30;99.90;;;;;;5043472;28;20038;-71
2023/10/21 06:48:25;;;;;;;14.80;9.45;;;12.20;99.90;;;;;;5029697;28;20037;-70
2023/10/21 06:50:52;;;;;;;20.02;10.63;;;12.30;99.90;;;;;;5047530;28;20048;-72
2023/10/21 06:53:17;;;;;;;21.80;9.93;;;12.30;99.90;;;;;;5046340;28;20049;-73
2023/10/21 06:55:44;;;;;;;23.77;10.48;;;12.30;99.90;;;;;;5040386;28;20033;-74
2023/10/21 06:58:11;;;;;;;19.40;10.18;;;12.40;99.90;;;;;;5045759;28;20045;-73
2023/10/21 07:00:37;;;;;;;19.27;10.38;;;12.40;99.90;;;;;;5036608;28;20460;-72
2023/10/21 07:03:04;;;;;;;23.73;10.43;;;12.50;99.90;;;;;;5039268;28;20044;-72
2023/10/21 07:05:29;;;;;;;23.30;11.35;;;12.50;99.90;;;;;;5050045;28;20065;-73
2023/10/21 07:07:55;;;;;;;18.05;10.27;;;12.60;99.90;;;;;;5049160;28;20550;-71
2023/10/21 07:10:21;;;;;;;20.40;10.25;;;12.60;99.90;;;;;;5050240;28;20041;-75
2023/10/21 07:12:46;;;;;;;22.20;10.80;;;12.60;99.90;;;;;;5025553;28;20041;-73
2023/10/21 07:15:12;;;;;;;24.70;11.18;;;12.70;99.90;;;;;;5048410;28;20072;-73
2023/10/21 07:17:37;;;;;;;17.42;10.27;;;12.70;99.90;;;;;;5054050;28;20417;-73
2023/10/21 07:20:05;;;;;;;19.15;10.63;;;12.80;99.90;;;;;;5043105;28;20043;-74
2023/10/21 07:22:31;;;;;;;22.27;11.10;;;12.80;99.90;;;;;;5023511;28;20072;-75
2023/10/21 07:24:57;;;;;;;24.95;10.60;;;12.80;99.90;;;;;;5036583;28;20088;-75
2023/10/21 07:27:23;;;;;;;23.58;11.70;;;12.90;99.90;;;;;;5050754;28;20083;-75
2023/10/21 07:29:49;;;;;;;23.38;10.85;;;12.90;99.90;;;;;;5034131;28;20076;-75
2023/10/21 07:40:01;;;;;;;21.55;12.90;;;13.30;99.90;;;;;;5294679;22;20056;-66
2023/10/21 07:42:27;;;;;;;26.35;12.45;;;13.30;99.90;;;;;;5614309;22;20072;-69
2023/10/21 07:44:53;;;;;;;19.95;11.07;;;13.40;99.90;;;;;;5039012;28;20045;-70
2023/10/21 07:47:20;;;;;;;21.85;11.00;;;13.50;99.90;;;;;;5035246;28;20052;-67
2023/10/21 07:49:46;;;;;;;25.45;11.82;;;13.50;99.90;;;;;;5049632;28;20041;-68
2023/10/21 07:52:12;;;;;;;26.83;11.75;;;13.50;99.90;;;;;;5040657;28;20044;-63
2023/10/21 07:57:43;;;;;;;20.92;10.32;;;13.60;99.90;;;;;;5799873;22;20489;-67
2023/10/21 08:00:13;;;;;;;20.90;10.50;;;13.60;99.90;;;;;;5043013;28;20052;-67
2023/10/21 08:02:39;;;;;;;17.70;10.00;;;13.70;99.90;;;;;;5005918;28;20480;-66
2023/10/21 08:05:07;;;;;;;17.70;9.65;;;13.70;99.90;;;;;;5018309;28;20090;-67
2023/10/21 08:07:33;;;;;;;16.40;9.55;;;13.70;99.90;;;;;;5046880;28;20040;-67
2023/10/21 08:09:59;;;;;;;26.40;10.65;;;13.80;99.90;;;;;;5032927;28;20045;-69
2023/10/21 08:15:24;;;;;;;18.70;9.93;;;13.90;99.90;;;;;;5123894;22;20509;-65
2023/10/21 08:17:50;;;;;;;18.25;10.57;;;13.90;99.90;;;;;;5015136;28;20073;-66
2023/10/21 08:20:17;;;;;;;18.98;10.88;;;14.00;99.90;;;;;;5053958;28;20057;-66
2023/10/21 08:23:12;;;;;;;17.90;9.43;;;14.00;99.90;;;;;;5062101;28;20029;-66
2023/10/21 08:25:49;;;;;;;18.60;9.45;;;14.00;99.90;;;;;;5683432;22;20386;-68
2023/10/21 08:28:15;;;;;;;20.02;9.93;;;14.10;99.90;;;;;;5040623;28;20132;-67
2023/10/21 08:30:40;;;;;;;16.02;9.45;;;14.10;99.90;;;;;;5029282;28;20044;-67
2023/10/21 08:33:06;;;;;;;15.73;9.27;;;14.10;99.90;;;;;;5048691;28;20041;-65
2023/10/21 08:35:32;;;;;;;17.83;9.38;;;14.10;99.90;;;;;;5029998;28;20037;-66
2023/10/21 08:37:58;;;;;;;17.10;9.18;;;14.20;99.90;;;;;;5047560;28;20094;-66
2023/10/21 08:40:25;;;;;;;14.77;9.30;;;14.30;99.90;;;;;;5053181;28;20060;-65
2023/10/21 08:42:51;;;;;;;16.70;9.35;;;14.40;99.90;;;;;;5032915;28;20125;-67
2023/10/21 08:45:19;;;;;;;16.75;8.80;;;14.40;99.90;;;;;;5029418;28;20499;-66
2023/10/21 08:47:45;;;;;;;16.33;8.20;;;14.50;99.90;;;;;;5052400;28;20041;-66
2023/10/21 08:50:13;;;;;;;16.00;8.15;;;14.50;99.90;;;;;;5057831;28;20037;-69
2023/10/21 08:52:40;;;;;;;19.48;8.65;;;14.50;99.90;;;;;;5012507;28;20082;-68
2023/10/21 08:55:06;;;;;;;16.60;8.27;;;14.60;99.90;;;;;;5056716;28;20121;-68
2023/10/21 08:57:36;;;;;;;12.85;7.90;;;14.70;99.90;;;;;;5035200;28;20171;-68
2023/10/21 09:00:04;;;;;;;13.98;7.85;;;14.80;99.90;;;;;;5049002;28;20048;-69
2023/10/21 09:02:30;;;;;;;14.38;8.20;;;14.90;99.90;;;;;;5052297;28;20051;-69
2023/10/21 09:04:55;;;;;;;15.15;7.35;;;15.00;99.90;;;;;;5057800;28;20033;-69
2023/10/21 09:07:21;;;;;;;11.57;7.20;;;15.00;99.90;;;;;;5041787;28;20032;-70
2023/10/21 09:09:47;;;;;;;14.32;6.88;;;15.00;99.90;;;;;;5038698;28;20049;-70
2023/10/21 09:12:13;;;;;;;11.05;6.20;;;15.00;99.90;;;;;;5573026;22;20016;-71
2023/10/21 09:14:56;;;;;;;10.07;6.20;;;14.90;99.90;;;;;;5032665;28;20512;-71
2023/10/21 09:17:45;;;;;;;12.20;5.93;;;14.90;99.90;;;;;;5022786;28;20040;-70
2023/10/21 09:20:15;;;;;;;12.77;5.80;;;14.80;99.90;;;;;;5052043;28;20084;-70
2023/10/21 09:22:43;;;;;;;8.15;5.70;;;14.80;99.90;;;;;;5026573;28;20029;-70
2023/10/21 09:25:16;;;;;;;14.13;4.80;;;14.70;99.90;;;;;;5042111;28;20037;-71
2023/10/21 09:27:53;;;;;;;9.20;4.53;;;14.70;99.90;;;;;;5047504;22;20045;-71
2023/10/21 09:30:23;;;;;;;9.00;4.43;;;14.70;99.90;;;;;;5022833;28;20106;-72
2023/10/21 09:32:51;;;;;;;7.68;3.83;;;14.70;99.90;;;;;;5022247;28;20054;-71
2023/10/21 09:35:21;;;;;;;5.75;3.22;;;14.80;99.90;;;;;;5023423;28;20068;-71
2023/10/21 09:37:50;;;;;;;7.43;3.47;;;14.70;99.90;;;;;;5032543;28;20504;-72
2023/10/21 09:40:17;;;;;;;5.07;3.38;;;14.80;99.90;;;;;;5023123;28;20038;-71
2023/10/21 09:42:43;;;;;;;5.93;3.08;;;14.70;99.90;;;;;;5018321;28;20094;-74
2023/10/21 09:45:11;;;;;;;3.90;2.88;;;14.70;99.90;;;;;;5022478;28;20056;-71
2023/10/21 09:47:41;;;;;;;4.45;3.28;;;14.60;99.90;;;;;;5020104;28;20037;-71
2023/10/21 09:50:12;;;;;;;4.00;2.92;;;14.50;99.90;;;;;;5004990;28;20042;-71
2023/10/21 09:52:44;;;;;;;4.35;2.97;;;14.50;99.90;;;;;;5024315;28;20052;-71
2023/10/21 09:55:12;;;;;;;5.22;3.38;;;14.50;99.90;;;;;;5030250;28;20044;-72
2023/10/21 09:57:38;;;;;;;3.45;2.55;;;14.50;99.90;;;;;;5014419;28;20034;-72
2023/10/21 10:00:09;;;;;;;5.18;2.95;;;14.50;99.90;;;;;;5008595;28;20625;-71
2023/10/21 10:02:38;;;;;;;4.28;2.42;;;14.40;99.90;;;;;;5022204;28;20120;-71
2023/10/21 10:05:08;;;;;;;3.88;2.30;;;14.40;99.90;;;;;;5007816;28;20041;-72
2023/10/21 10:07:39;;;;;;;3.20;2.08;;;14.40;99.90;;;;;;5015951;28;20121;-72
2023/10/21 10:10:07;;;;;;;2.80;1.67;;;14.50;99.90;;;;;;5028771;28;20606;-74
2023/10/21 10:12:38;;;;;;;2.65;1.70;;;14.60;99.90;;;;;;5027722;28;20049;-72
2023/10/21 10:15:32;;;;;;;1.60;1.30;;;14.60;99.90;;;;;;5015243;28;20050;-69
2023/10/21 10:18:08;;;;;;;3.75;1.50;;;14.70;99.90;;;;;;5011179;28;20076;-69
2023/10/21 10:20:43;;;;;;;2.75;1.38;;;14.90;99.90;;;;;;5016758;28;20565;-69
2023/10/21 10:23:09;;;;;;;2.72;1.42;;;15.00;99.90;;;;;;5026628;28;20084;-72
2023/10/21 10:25:39;;;;;;;4.18;1.40;;;15.00;99.90;;;;;;5031509;28;20640;-72
2023/10/21 10:28:09;;;;;;;2.88;1.77;;;15.20;99.90;;;;;;5016899;28;20141;-72
2023/10/21 10:30:43;;;;;;;4.38;1.70;;;15.10;99.90;;;;;;5032536;28;20053;-72
2023/10/21 10:33:15;;;;;;;2.10;1.63;;;15.10;99.90;;;;;;5014252;28;20054;-70
2023/10/21 10:35:47;;;;;;;2.63;1.85;;;15.20;99.90;;;;;;5018312;28;20037;-69
2023/10/21 10:38:27;;;;;;;3.97;1.63;;;15.20;99.90;;;;;;5013225;28;20477;-72
2023/10/21 10:41:06;;;;;;;2.25;1.50;;;15.30;99.90;;;;;;5015657;28;20077;-71
2023/10/21 10:43:32;;;;;;;3.08;1.70;;;15.50;99.90;;;;;;4999298;28;20065;-68
2023/10/21 10:46:00;;;;;;;2.05;1.42;;;15.60;99.90;;;;;;5022318;28;20494;-68
2023/10/21 10:48:26;;;;;;;1.50;1.40;;;15.70;99.90;;;;;;5020908;28;20041;-73
2023/10/21 10:50:59;;;;;;;1.40;1.30;;;15.60;99.90;;;;;;5024318;28;20462;-70
2023/10/21 10:53:24;;;;;;;1.42;1.33;;;15.50;99.90;;;;;;5021759;28;20057;-69
2023/10/21 10:55:53;;;;;;;2.05;1.40;;;15.40;99.90;;;;;;5014607;28;20041;-72
2023/10/21 10:58:21;;;;;;;2.00;1.38;;;15.50;99.90;;;;;;5018754;28;20079;-71
2023/10/21 11:00:47;;;;;;;2.50;1.60;;;15.40;99.90;;;;;;5009523;28;20113;-72
2023/10/21 11:03:29;;;;;;;2.75;1.45;;;15.40;99.90;;;;;;5014554;28;20037;-71
2023/10/21 11:05:57;;;;;;;2.28;1.40;;;15.40;99.90;;;;;;5013540;28;20049;-70
2023/10/21 11:08:23;;;;;;;1.95;1.65;;;15.40;99.90;;;;;;5024278;28;20041;-71
2023/10/21 11:10:53;;;;;;;3.08;1.60;;;15.40;99.90;;;;;;5015034;28;20045;-69
2023/10/21 11:13:21;;;;;;;1.70;1.40;;;15.40;99.90;;;;;;5006013;28;20055;-69
2023/10/21 11:15:51;;;;;;;4.07;1.70;;;15.40;99.90;;;;;;5016926;28;20515;-69
2023/10/21 11:18:18;;;;;;;1.52;1.38;;;15.40;99.90;;;;;;5031616;28;20049;-69
2023/10/21 11:20:51;;;;;;;1.67;1.20;;;15.30;99.90;;;;;;5020128;28;20051;-73
2023/10/21 11:23:23;;;;;;;2.17;1.45;;;15.20;99.90;;;;;;5010222;28;20393;-72
2023/10/21 11:25:51;;;;;;;2.00;1.30;;;15.10;99.90;;;;;;5031390;28;20489;-72
2023/10/21 11:28:17;;;;;;;1.38;1.10;;;15.10;99.90;;;;;;5028163;28;20030;-72
2023/10/21 11:30:47;;;;;;;2.13;1.25;;;15.00;99.90;;;;;;5004033;28;21031;-72
2023/10/21 11:33:13;;;;;;;2.08;1.17;;;15.00;99.90;;;;;;5026163;28;20049;-71
2023/10/21 11:35:39;;;;;;;2.75;1.40;;;15.00;99.90;;;;;;4999948;28;20037;-71
2023/10/21 11:38:06;;;;;;;3.83;1.50;;;15.00;99.90;;;;;;5018419;28;20527;-71
2023/10/21 11:40:36;;;;;;;2.45;1.40;;;15.10;99.90;;;;;;5018860;28;20485;-72
2023/10/21 11:43:05;;;;;;;2.00;1.20;;;15.00;99.90;;;;;;5000632;28;20505;-72
2023/10/21 11:45:31;;;;;;;3.33;1.30;;;15.00;99.90;;;;;;5016504;28;20379;-72
2023/10/21 11:47:59;;;;;;;2.17;1.17;;;15.10;99.90;;;;;;5027254;28;20092;-72
2023/10/21 11:50:25;;;;;;;1.73;1.20;;;15.10;99.90;;;;;;5009441;28;20567;-68
2023/10/21 11:52:51;;;;;;;2.83;1.08;;;15.20;99.90;;;;;;5024479;28;20120;-69
2023/10/21 12:11:47;;;;;;;2.75;1.30;;;15.50;99.90;;;;;;5012968;28;20092;-72
2023/10/21 12:20:30;;;;;;;3.63;1.35;;;15.70;99.90;;;;;;4991751;28;20057;-72
2023/10/21 12:36:10;;;;;;;3.53;1.35;;;16.20;99.90;;;;;;5019470;28;20049;-69
2023/10/21 12:38:54;;;;;;;4.93;1.67;;;16.50;99.90;;;;;;5009908;28;20050;-69
2023/10/21 12:41:26;;;;;;;1.88;1.20;;;16.60;99.90;;;;;;5020938;28;20482;-69
2023/10/21 12:43:55;;;;;;;3.15;1.20;;;16.60;99.90;;;;;;5033897;28;20073;-69
2023/10/21 12:46:24;;;;;;;3.65;1.20;;;16.50;99.90;;;;;;5034623;28;20037;-72
2023/10/21 12:48:54;;;;;;;3.53;1.58;;;16.50;99.90;;;;;;5024518;28;20037;-72
2023/10/21 12:51:21;;;;;;;2.13;1.17;;;16.50;99.90;;;;;;5033161;28;20116;-72
2023/10/21 12:53:47;;;;;;;1.92;1.10;;;16.30;99.90;;;;;;5000000;28;20099;-72
2023/10/21 12:56:13;;;;;;;6.53;1.55;;;16.30;99.90;;;;;;5025172;28;20576;-72
2023/10/21 12:58:40;;;;;;;3.88;1.42;;;16.20;99.90;;;;;;5030452;28;20037;-72
2023/10/21 13:01:10;;;;;;;3.45;1.25;;;16.20;99.90;;;;;;5034405;28;20084;-72
2023/10/21 13:03:37;;;;;;;4.68;1.52;;;16.20;99.90;;;;;;5035211;28;20389;-72
2023/10/21 13:06:05;;;;;;;6.82;1.52;;;16.30;99.90;;;;;;5025337;28;20049;-73
2023/10/21 13:08:31;;;;;;;3.30;1.30;;;16.50;99.90;;;;;;5015800;28;20049;-73
2023/10/21 13:10:57;;;;;;;4.85;1.40;;;16.50;99.90;;;;;;5002030;28;20064;-73
2023/10/21 13:13:23;;;;;;;3.85;1.73;;;16.40;99.90;;;;;;5023035;28;20136;-73
2023/10/21 13:15:50;;;;;;;5.03;1.20;;;16.50;99.90;;;;;;5013273;28;20506;-73
2023/10/21 13:18:18;;;;;;;3.03;1.65;;;16.50;99.90;;;;;;5025889;28;20048;-73
2023/10/21 13:20:45;;;;;;;3.97;1.35;;;16.60;99.90;;;;;;5026080;28;20042;-73
2023/10/21 13:23:11;;;;;;;3.33;1.40;;;16.30;99.90;;;;;;5028414;28;20448;-74
2023/10/21 13:25:38;;;;;;;4.75;1.15;;;16.20;99.90;;;;;;5021586;28;20030;-73